Beulah, North Dakota
Current Conditions -  °F | °C
As of 12:15 PM on Friday 21 Nov 2014 (Local Time) from KHZE Reporting Station
Clear Clear  
Wind Chill: 36°   Ceiling: Unl
Heat Index: 43°   Visibility: 10mi
Dew Point: 28°   Wind: 14mph
Humidity: 57%   Direction: 260°W
Pressure: 29.68"   Gusts: NA
Location:  47.26°N, 101.78°W
Report Text: KHZE 211915Z AUTO 26012KT 10SM CLR 06/M02 A2968 RMK AO2
Loading
Personal Weather Stations






























Interactive Weather Map New forecast layout! Learn more

10-Day Weather Forecast

Advertisements
Track Severe Weather on mobile